Time;durP1;ratioP1;P1;durP2;ratioP2;P2;SDS_P1;SDS_P2;PMS_P1;PMS_P2;Temp;Humidity;BMP_temperature;BMP_pressure;BME280_temperature;BME280_humidity;BME280_pressure;Samples;Min_cycle;Max_cycle;Signal;HPM_P1;HPM_P2
2023/03/15 00:03:10;;;;;;;0.00;0.00;;;;;;;0.77;100.00;100648.06;10530598;28;20048;-85
2023/03/15 00:08:12;;;;;;;0.00;0.00;;;;;;;0.75;100.00;100633.53;10548339;28;20039;-86
2023/03/15 00:13:16;;;;;;;0.00;0.00;;;;;;;0.65;100.00;100618.53;10546985;28;20097;-86
2023/03/15 00:18:19;;;;;;;0.00;0.00;;;;;;;0.66;100.00;100602.53;10546663;28;20043;-87
2023/03/15 00:23:21;;;;;;;0.00;0.00;;;;;;;0.65;100.00;100591.53;10526596;28;20505;-86
2023/03/15 00:28:23;;;;;;;0.10;0.10;;;;;;;0.74;100.00;100591.19;10533550;28;20143;-86
2023/03/15 00:33:25;;;;;;;0.00;0.00;;;;;;;1.03;100.00;100567.59;10536062;28;20827;-85
2023/03/15 00:38:28;;;;;;;1.55;0.28;;;;;;;1.08;100.00;100567.88;10534045;28;20069;-85
2023/03/15 00:43:30;;;;;;;0.00;0.00;;;;;;;1.12;100.00;100564.69;10548604;28;20056;-85
2023/03/15 00:48:34;;;;;;;0.00;0.00;;;;;;;1.17;100.00;100554.81;10554312;28;20131;-86
2023/03/15 00:53:37;;;;;;;0.00;0.00;;;;;;;1.30;100.00;100548.81;10523899;28;20053;-86
2023/03/15 00:58:40;;;;;;;0.10;0.10;;;;;;;1.33;100.00;100554.94;10538209;28;20562;-86
2023/03/15 01:03:42;;;;;;;0.00;0.00;;;;;;;1.33;100.00;100556.56;10523950;28;20495;-85
2023/03/15 01:08:44;;;;;;;0.05;0.05;;;;;;;1.49;100.00;100548.19;10542652;28;20054;-86
2023/03/15 01:13:46;;;;;;;0.00;0.00;;;;;;;1.55;100.00;100538.38;10554689;28;20051;-85
2023/03/15 01:18:50;;;;;;;0.00;0.00;;;;;;;1.57;100.00;100550.38;10505429;28;20040;-86
2023/03/15 01:23:53;;;;;;;0.00;0.00;;;;;;;1.82;100.00;100549.22;10534099;28;20055;-85
2023/03/15 01:28:55;;;;;;;0.00;0.00;;;;;;;1.62;100.00;100554.81;10508736;28;20058;-86
2023/03/15 01:33:59;;;;;;;0.00;0.00;;;;;;;1.62;100.00;100548.09;10527022;28;20040;-86
2023/03/15 01:39:05;;;;;;;0.00;0.00;;;;;;;1.62;100.00;100559.91;10537559;28;20036;-86
2023/03/15 01:44:18;;;;;;;0.08;0.08;;;;;;;1.61;100.00;100564.13;10529092;28;20048;-86
2023/03/15 01:49:29;;;;;;;0.10;0.10;;;;;;;1.51;100.00;100562.72;10526087;28;20046;-85
2023/03/15 01:54:38;;;;;;;0.00;0.00;;;;;;;1.61;100.00;100566.66;10548221;28;20138;-86
2023/03/15 01:59:45;;;;;;;0.10;0.10;;;;;;;1.63;100.00;100566.72;10550355;28;20040;-86
2023/03/15 02:04:52;;;;;;;0.10;0.10;;;;;;;1.36;100.00;100570.31;10537892;28;20047;-86
2023/03/15 02:10:05;;;;;;;0.17;0.05;;;;;;;1.32;100.00;100578.56;10536882;28;20636;-85
2023/03/15 02:15:13;;;;;;;0.13;0.10;;;;;;;1.25;100.00;100576.44;10534030;28;20119;-86
2023/03/15 02:20:39;;;;;;;0.00;0.00;;;;;;;1.36;100.00;100579.59;10557463;28;20047;-86
2023/03/15 02:26:00;;;;;;;0.00;0.00;;;;;;;1.42;100.00;100574.88;10517371;28;20045;-85
2023/03/15 02:31:02;;;;;;;0.52;0.22;;;;;;;1.39;100.00;100584.84;10531122;28;20394;-85
2023/03/15 02:36:31;;;;;;;0.08;0.08;;;;;;;1.38;100.00;100588.16;10507446;28;20060;-84
2023/03/15 02:41:38;;;;;;;0.00;0.00;;;;;;;1.41;100.00;100588.34;10509164;28;20044;-83
2023/03/15 02:46:42;;;;;;;0.15;0.15;;;;;;;1.38;100.00;100598.31;10544761;28;20132;-85
2023/03/15 02:51:44;;;;;;;0.10;0.10;;;;;;;1.48;100.00;100600.63;10529404;28;20047;-84
2023/03/15 02:56:46;;;;;;;0.00;0.00;;;;;;;1.49;100.00;100597.28;10549488;28;20045;-84
2023/03/15 03:01:47;;;;;;;0.13;0.13;;;;;;;1.62;100.00;100613.22;10537207;28;20462;-84
2023/03/15 03:06:49;;;;;;;0.00;0.00;;;;;;;1.69;100.00;100617.88;10546939;28;20048;-85
2023/03/15 03:11:55;;;;;;;0.38;0.38;;;;;;;1.72;100.00;100631.63;10541316;28;20051;-85
2023/03/15 03:16:58;;;;;;;0.00;0.00;;;;;;;1.79;100.00;100643.00;10539142;28;20051;-85
2023/03/15 03:22:01;;;;;;;0.80;0.30;;;;;;;1.49;100.00;100648.06;10545407;28;20131;-84
2023/03/15 03:27:03;;;;;;;0.00;0.00;;;;;;;1.51;100.00;100653.22;10524967;28;20044;-84
2023/03/15 03:32:09;;;;;;;0.00;0.00;;;;;;;1.55;100.00;100663.66;10544671;28;20048;-84
2023/03/15 03:37:11;;;;;;;0.00;0.00;;;;;;;1.40;100.00;100678.88;10560578;28;20040;-83
2023/03/15 03:42:38;;;;;;;0.00;0.00;;;;;;;1.26;100.00;100692.41;10524199;28;20071;-84
2023/03/15 03:47:40;;;;;;;0.03;0.03;;;;;;;1.39;100.00;100699.06;10532767;28;20601;-83
2023/03/15 03:52:42;;;;;;;0.32;0.32;;;;;;;1.35;100.00;100700.56;10547497;28;20173;-83
2023/03/15 03:57:52;;;;;;;0.00;0.00;;;;;;;1.47;100.00;100713.09;10548799;28;20101;-83
2023/03/15 04:03:09;;;;;;;0.10;0.10;;;;;;;1.57;100.00;100705.25;10521188;28;20052;-83
2023/03/15 04:08:13;;;;;;;0.00;0.00;;;;;;;1.51;100.00;100731.94;10560077;28;20127;-83
2023/03/15 04:13:15;;;;;;;0.65;0.47;;;;;;;1.50;100.00;100741.22;10549740;28;20071;-83
2023/03/15 04:18:17;;;;;;;0.00;0.00;;;;;;;1.38;100.00;100766.75;10534987;28;20131;-83
2023/03/15 04:23:21;;;;;;;0.00;0.00;;;;;;;1.08;100.00;100786.06;10572866;27;20490;-83
2023/03/15 04:28:57;;;;;;;0.00;0.00;;;;;;;1.17;100.00;100786.59;10545705;28;20075;-84
2023/03/15 04:34:08;;;;;;;0.47;0.38;;;;;;;1.02;100.00;100793.25;10539460;28;20040;-83
2023/03/15 04:39:28;;;;;;;0.00;0.00;;;;;;;1.08;100.00;100806.38;10548223;28;20498;-83
2023/03/15 04:44:38;;;;;;;0.30;0.22;;;;;;;1.31;100.00;100819.56;10517278;28;20448;-83
2023/03/15 04:50:02;;;;;;;0.40;0.28;;;;;;;1.16;100.00;100815.31;10532716;28;20066;-83
2023/03/15 04:55:13;;;;;;;0.38;0.38;;;;;;;0.92;100.00;100820.63;10528744;28;20047;-81
2023/03/15 05:00:30;;;;;;;0.40;0.40;;;;;;;1.05;100.00;100818.84;10561769;28;20070;-83
2023/03/15 05:05:45;;;;;;;0.30;0.30;;;;;;;0.85;100.00;100837.88;10521299;28;20075;-83
2023/03/15 05:11:13;;;;;;;0.22;0.20;;;;;;;0.90;100.00;100828.88;10536317;27;20439;-83
2023/03/15 05:16:34;;;;;;;0.25;0.20;;;;;;;0.89;100.00;100839.84;10524277;28;20048;-83
2023/03/15 05:21:46;;;;;;;0.80;0.15;;;;;;;0.76;100.00;100854.25;10532222;28;20051;-83
2023/03/15 05:27:03;;;;;;;0.10;0.10;;;;;;;0.52;100.00;100868.75;10525623;28;20134;-83
2023/03/15 05:32:25;;;;;;;0.10;0.10;;;;;;;0.62;100.00;100880.38;10550974;28;20048;-84
2023/03/15 05:37:46;;;;;;;0.75;0.75;;;;;;;0.67;100.00;100890.81;10538240;28;20430;-83
2023/03/15 05:43:05;;;;;;;0.00;0.00;;;;;;;0.75;100.00;100903.22;10515716;28;20518;-84
2023/03/15 05:48:28;;;;;;;0.00;0.00;;;;;;;1.06;100.00;100910.28;10551307;28;20044;-78
2023/03/15 05:53:37;;;;;;;0.00;0.00;;;;;;;1.36;100.00;100896.91;10522894;28;20040;-79
2023/03/15 05:59:05;;;;;;;0.00;0.00;;;;;;;1.48;100.00;100895.13;10526689;28;20052;-79
2023/03/15 06:04:26;;;;;;;1.45;0.88;;;;;;;1.48;100.00;100904.41;10527096;28;20098;-79
2023/03/15 06:09:30;;;;;;;0.03;0.03;;;;;;;1.60;100.00;100909.41;10556700;28;20048;-79
2023/03/15 06:14:32;;;;;;;0.75;0.40;;;;;;;1.64;100.00;100918.94;10508369;28;20077;-79
2023/03/15 06:19:40;;;;;;;0.22;0.22;;;;;;;1.57;100.00;100933.81;10520310;28;20049;-79
2023/03/15 06:24:41;;;;;;;0.28;0.28;;;;;;;1.57;100.00;100938.88;10563576;28;20044;-79
2023/03/15 06:29:43;;;;;;;0.10;0.10;;;;;;;1.74;100.00;100959.38;10516608;28;20106;-80
2023/03/15 06:34:45;;;;;;;0.30;0.30;;;;;;;1.99;100.00;100960.88;10551807;28;20052;-79
2023/03/15 06:39:49;;;;;;;0.00;0.00;;;;;;;2.21;100.00;100969.03;10526422;28;20047;-84
2023/03/15 06:44:51;;;;;;;0.40;0.25;;;;;;;2.18;100.00;100994.28;10536622;28;20044;-83
2023/03/15 06:49:54;;;;;;;0.00;0.00;;;;;;;2.65;100.00;101002.13;10520563;28;20046;-83
2023/03/15 06:54:57;;;;;;;0.08;0.08;;;;;;;2.81;100.00;101020.06;10520930;28;20044;-83
2023/03/15 06:59:59;;;;;;;0.10;0.10;;;;;;;3.15;100.00;101037.31;10501786;28;20100;-83
2023/03/15 07:05:01;;;;;;;0.05;0.05;;;;;;;3.49;100.00;101044.34;10510090;28;20082;-82
2023/03/15 07:10:03;;;;;;;0.20;0.20;;;;;;;4.19;100.00;101054.94;10554103;28;20048;-80
2023/03/15 07:15:05;;;;;;;0.90;0.47;;;;;;;4.08;100.00;101090.94;10543245;28;20065;-79
2023/03/15 07:20:07;;;;;;;0.45;0.45;;;;;;;3.15;100.00;101134.06;10564122;28;20047;-79
2023/03/15 07:25:09;;;;;;;0.00;0.00;;;;;;;2.89;100.00;101144.34;10518160;28;20434;-79
2023/03/15 07:30:11;;;;;;;0.75;0.75;;;;;;;3.42;100.00;101149.22;10524469;28;20055;-79
2023/03/15 07:35:13;;;;;;;0.00;0.00;;;;;;;4.17;100.00;101153.44;10541261;28;20071;-83
2023/03/15 07:40:15;;;;;;;0.25;0.25;;;;;;;4.36;100.00;101163.84;10506127;28;20044;-83
2023/03/15 07:45:16;;;;;;;0.15;0.13;;;;;;;4.45;100.00;101186.47;10513074;28;20059;-79
2023/03/15 07:50:21;;;;;;;0.00;0.00;;;;;;;4.33;100.00;101213.81;10511484;28;20127;-79
2023/03/15 07:55:24;;;;;;;0.00;0.00;;;;;;;4.80;100.00;101224.94;10540706;28;20039;-80
2023/03/15 08:00:26;;;;;;;0.00;0.00;;;;;;;4.66;100.00;101262.44;10526139;28;20040;-80
2023/03/15 08:05:27;;;;;;;0.00;0.00;;;;;;;5.24;100.00;101269.88;10559760;28;20044;-80
2023/03/15 08:10:29;;;;;;;0.00;0.00;;;;;;;5.37;100.00;101302.94;10556473;28;20479;-80
2023/03/15 08:15:31;;;;;;;0.00;0.00;;;;;;;5.48;100.00;101334.16;10530503;28;20135;-80
2023/03/15 08:20:33;;;;;;;0.55;0.45;;;;;;;5.29;100.00;101352.72;10519273;28;20492;-80
2023/03/15 08:25:39;;;;;;;0.00;0.00;;;;;;;5.75;100.00;101367.09;10525244;28;20102;-81
2023/03/15 08:30:41;;;;;;;0.00;0.00;;;;;;;5.96;100.00;101403.16;10534516;28;20068;-81
2023/03/15 08:35:43;;;;;;;0.00;0.00;;;;;;;5.85;100.00;101450.28;10511274;28;20597;-79
2023/03/15 08:40:45;;;;;;;0.00;0.00;;;;;;;7.01;100.00;101447.69;10561186;28;20043;-79
2023/03/15 08:45:49;;;;;;;0.00;0.00;;;;;;;7.23;100.00;101471.00;10524907;28;20040;-79
2023/03/15 08:51:03;;;;;;;0.00;0.00;;;;;;;7.48;100.00;101518.34;10524847;28;20518;-79
2023/03/15 08:56:04;;;;;;;0.00;0.00;;;;;;;7.76;100.00;101555.56;10557645;28;20043;-80
2023/03/15 09:01:06;;;;;;;0.00;0.00;;;;;;;8.00;100.00;101571.25;10543453;28;20040;-80
2023/03/15 09:06:08;;;;;;;0.00;0.00;;;;;;;6.86;100.00;101581.00;10524411;28;20051;-80
2023/03/15 09:11:10;;;;;;;0.10;0.10;;;;;;;6.79;100.00;101584.94;10541000;28;20090;-80
2023/03/15 09:16:12;;;;;;;0.45;0.32;;;;;;;6.91;100.00;101600.94;10528491;28;20566;-80
2023/03/15 09:21:14;;;;;;;0.00;0.00;;;;;;;6.75;100.00;101618.84;10523516;28;20436;-80
2023/03/15 09:26:15;;;;;;;6.65;0.80;;;;;;;7.15;100.00;101619.25;10523283;28;20406;-80
2023/03/15 09:31:18;;;;;;;0.00;0.00;;;;;;;7.13;100.00;101638.81;10522698;28;20058;-79
2023/03/15 09:36:22;;;;;;;0.00;0.00;;;;;;;7.05;100.00;101669.94;10544466;28;20047;-79
2023/03/15 09:41:48;;;;;;;0.00;0.00;;;;;;;7.56;100.00;101668.28;10523096;28;20510;-79
2023/03/15 09:47:05;;;;;;;0.10;0.10;;;;;;;7.21;100.00;101664.81;10519873;28;20377;-79
2023/03/15 09:52:32;;;;;;;0.10;0.10;;;;;;;8.19;100.00;101652.56;10573133;27;20044;-78
2023/03/15 09:57:45;;;;;;;0.00;0.00;;;;;;;8.46;100.00;101670.06;10523283;28;20044;-80
2023/03/15 10:02:55;;;;;;;0.32;0.32;;;;;;;9.04;100.00;101691.59;10511379;28;20487;-79
2023/03/15 10:07:57;;;;;;;0.32;0.32;;;;;;;9.28;100.00;101711.44;10537366;28;20082;-79
2023/03/15 10:13:07;;;;;;;0.22;0.22;;;;;;;8.59;100.00;101742.59;10530171;28;20070;-78
2023/03/15 10:18:26;;;;;;;0.13;0.10;;;;;;;9.47;100.00;101732.03;10579530;28;20110;-78
2023/03/15 10:23:44;;;;;;;5.80;0.30;;;;;;;8.86;100.00;101732.75;10550202;28;20067;-78
2023/03/15 10:28:46;;;;;;;0.00;0.00;;;;;;;9.97;100.00;101731.56;10540974;28;20047;-78
2023/03/15 10:33:49;;;;;;;0.00;0.00;;;;;;;9.82;100.00;101758.41;10523170;28;20054;-78
2023/03/15 10:38:51;;;;;;;0.00;0.00;;;;;;;10.17;100.00;101763.28;10527996;28;20073;-78
2023/03/15 10:44:02;;;;;;;0.00;0.00;;;;;;;10.15;100.00;101758.06;10535974;28;20048;-79
2023/03/15 10:49:15;;;;;;;1.35;0.20;;;;;;;9.71;100.00;101779.34;10534308;28;20040;-79
2023/03/15 10:54:23;;;;;;;0.00;0.00;;;;;;;9.61;100.00;101781.50;10532386;28;20044;-78
2023/03/15 10:59:28;;;;;;;0.00;0.00;;;;;;;8.61;100.00;101788.09;10541299;28;20085;-78
2023/03/15 11:04:30;;;;;;;0.00;0.00;;;;;;;9.58;100.00;101834.53;10546959;28;20169;-78
2023/03/15 11:09:51;;;;;;;0.30;0.05;;;;;;;11.00;100.00;101834.47;10537576;28;20047;-78
2023/03/15 11:15:01;;;;;;;0.65;0.15;;;;;;;9.12;96.69;101841.00;10537259;28;20055;-77
2023/03/15 11:20:29;;;;;;;1.17;0.20;;;;;;;10.51;98.56;101838.53;10534085;28;20047;-77
2023/03/15 11:25:32;;;;;;;0.00;0.00;;;;;;;10.37;95.45;101838.84;10543092;28;20187;-77
2023/03/15 11:30:35;;;;;;;12.07;0.40;;;;;;;10.83;96.49;101834.66;10546503;28;20048;-78
2023/03/15 11:35:48;;;;;;;0.93;0.10;;;;;;;10.38;94.62;101847.44;10543069;28;20044;-77
2023/03/15 11:40:55;;;;;;;0.55;0.10;;;;;;;10.91;92.17;101843.59;10533702;28;20039;-78
2023/03/15 11:45:59;;;;;;;0.00;0.00;;;;;;;8.94;87.81;101859.03;10527453;28;20085;-81
2023/03/15 11:51:16;;;;;;;0.00;0.00;;;;;;;9.88;88.98;101857.28;10527033;28;20184;-81
2023/03/15 11:56:43;;;;;;;0.00;0.00;;;;;;;9.72;83.30;101859.16;10550635;28;20043;-81
2023/03/15 12:01:48;;;;;;;0.00;0.00;;;;;;;11.13;86.47;101836.69;10513120;28;20041;-81
2023/03/15 12:06:54;;;;;;;0.00;0.00;;;;;;;9.37;83.21;101845.59;10526658;28;20448;-82
2023/03/15 12:12:01;;;;;;;2.75;0.98;;;;;;;9.68;84.01;101852.13;10528380;28;20077;-81
2023/03/15 12:17:27;;;;;;;0.00;0.00;;;;;;;10.41;83.15;101840.72;10541362;28;20236;-80
2023/03/15 12:22:32;;;;;;;0.00;0.00;;;;;;;10.45;81.62;101837.47;10535429;28;20040;-81
2023/03/15 12:27:36;;;;;;;0.00;0.00;;;;;;;10.20;84.81;101845.81;10535733;28;20431;-81
2023/03/15 12:32:48;;;;;;;1.33;1.23;;;;;;;9.41;83.25;101844.06;10546947;28;20117;-80
2023/03/15 12:37:52;;;;;;;0.00;0.00;;;;;;;8.78;87.35;101840.28;10520935;28;20051;-80
2023/03/15 12:42:56;;;;;;;0.00;0.00;;;;;;;8.77;87.45;101841.09;10533777;28;20051;-81
2023/03/15 12:47:57;;;;;;;0.00;0.00;;;;;;;10.30;88.69;101844.53;10557268;28;20043;-81
2023/03/15 12:53:04;;;;;;;0.30;0.05;;;;;;;9.74;89.16;101841.25;10550715;28;20047;-80
2023/03/15 12:58:11;;;;;;;0.10;0.10;;;;;;;9.82;78.55;101856.22;10523817;28;20102;-81
2023/03/15 13:03:17;;;;;;;0.00;0.00;;;;;;;9.15;76.76;101842.03;10527022;28;20036;-80
2023/03/15 13:08:24;;;;;;;0.05;0.05;;;;;;;9.38;84.77;101849.94;10543102;28;20067;-81
2023/03/15 13:13:43;;;;;;;0.00;0.00;;;;;;;9.44;80.81;101851.91;10558273;28;20418;-79
2023/03/15 13:19:03;;;;;;;0.00;0.00;;;;;;;9.44;81.71;101863.06;10543185;28;20509;-80
2023/03/15 13:24:18;;;;;;;0.00;0.00;;;;;;;9.40;77.57;101866.34;10543825;28;20128;-79
2023/03/15 13:29:28;;;;;;;0.00;0.00;;;;;;;9.42;88.38;101859.53;10535073;28;20106;-80
2023/03/15 13:34:32;;;;;;;0.20;0.17;;;;;;;9.71;83.22;101856.53;10558014;28;20046;-80
2023/03/15 13:39:34;;;;;;;0.32;0.32;;;;;;;9.19;82.25;101859.38;10543075;28;20063;-80
2023/03/15 13:44:36;;;;;;;0.00;0.00;;;;;;;9.47;79.64;101858.09;10542747;28;20051;-79
2023/03/15 13:49:37;;;;;;;0.00;0.00;;;;;;;8.73;81.28;101854.63;10533531;28;20035;-79
2023/03/15 13:54:43;;;;;;;1.38;0.28;;;;;;;9.71;82.68;101851.41;10547166;28;20391;-80
2023/03/15 13:59:55;;;;;;;1.45;0.47;;;;;;;10.26;81.14;101856.38;10532554;28;20126;-79
2023/03/15 14:05:01;;;;;;;1.55;0.43;;;;;;;10.11;81.07;101848.88;10557043;28;20044;-80
2023/03/15 14:10:15;;;;;;;0.00;0.00;;;;;;;10.17;79.85;101858.56;10541727;28;20042;-79
2023/03/15 14:15:24;;;;;;;0.00;0.00;;;;;;;9.01;73.87;101861.06;10517437;28;20166;-80
2023/03/15 14:20:39;;;;;;;0.38;0.38;;;;;;;9.51;76.41;101865.13;10517816;28;20052;-79
2023/03/15 14:25:42;;;;;;;0.00;0.00;;;;;;;8.88;78.54;101870.78;10529509;28;20044;-78
2023/03/15 14:30:52;;;;;;;0.10;0.10;;;;;;;8.86;75.25;101872.38;10529679;28;20044;-79
2023/03/15 14:35:58;;;;;;;0.00;0.00;;;;;;;8.86;77.13;101877.53;10553215;28;20105;-79
2023/03/15 14:41:25;;;;;;;0.32;0.28;;;;;;;9.03;77.66;101886.03;10547190;28;20166;-79
2023/03/15 14:46:29;;;;;;;0.20;0.20;;;;;;;9.42;77.91;101885.25;10547080;27;20098;-79
2023/03/15 14:51:32;;;;;;;0.00;0.00;;;;;;;8.94;75.59;101887.28;10553362;28;20143;-79
2023/03/15 14:56:35;;;;;;;0.00;0.00;;;;;;;8.60;73.84;101894.22;10529223;28;20079;-79
2023/03/15 15:01:40;;;;;;;0.10;0.10;;;;;;;9.20;73.55;101897.13;10521945;28;20051;-79
2023/03/15 15:06:54;;;;;;;0.00;0.00;;;;;;;8.47;77.49;101890.16;10541873;28;20491;-80
2023/03/15 15:11:57;;;;;;;0.00;0.00;;;;;;;8.89;82.30;101881.91;10548114;28;20433;-80
2023/03/15 15:16:59;;;;;;;0.00;0.00;;;;;;;8.36;77.53;101883.56;10530538;28;20040;-79
2023/03/15 15:22:01;;;;;;;0.55;0.55;;;;;;;8.83;73.81;101876.50;10528874;28;20043;-79
2023/03/15 15:27:03;;;;;;;0.00;0.00;;;;;;;8.63;75.60;101881.53;10520203;28;20052;-79
2023/03/15 15:32:05;;;;;;;0.20;0.15;;;;;;;8.47;76.44;101874.75;10518965;28;20385;-79
2023/03/15 15:37:10;;;;;;;0.30;0.20;;;;;;;8.73;80.82;101875.16;10545507;28;20048;-80
2023/03/15 15:42:12;;;;;;;0.20;0.20;;;;;;;8.33;84.74;101868.91;10520805;28;20047;-79
2023/03/15 15:47:17;;;;;;;0.00;0.00;;;;;;;8.50;84.40;101866.31;10538058;28;20040;-79
2023/03/15 15:52:19;;;;;;;0.00;0.00;;;;;;;8.70;89.98;101863.06;10526316;28;20031;-80
2023/03/15 15:57:25;;;;;;;0.22;0.00;;;;;;;8.34;86.96;101859.50;10530486;28;20058;-77
2023/03/15 16:02:27;;;;;;;0.00;0.00;;;;;;;7.75;79.29;101856.50;10526227;28;20491;-77
2023/03/15 16:07:29;;;;;;;0.00;0.00;;;;;;;7.70;86.65;101863.06;10559918;28;20044;-76
2023/03/15 16:12:31;;;;;;;0.00;0.00;;;;;;;7.63;83.71;101861.84;10559203;28;20047;-77
2023/03/15 16:17:33;;;;;;;0.00;0.00;;;;;;;7.55;82.45;101853.75;10508648;28;20051;-77
2023/03/15 16:22:37;;;;;;;0.00;0.00;;;;;;;7.45;84.81;101862.63;10541985;28;20040;-77
2023/03/15 16:27:39;;;;;;;0.00;0.00;;;;;;;7.37;89.28;101858.75;10511081;28;20134;-77
2023/03/15 16:32:42;;;;;;;0.00;0.00;;;;;;;7.32;94.55;101870.44;10551508;28;20056;-77
2023/03/15 16:37:45;;;;;;;0.00;0.00;;;;;;;7.08;100.00;101868.28;10554885;28;20051;-76
2023/03/15 16:42:48;;;;;;;0.00;0.00;;;;;;;6.99;100.00;101871.22;10561860;28;20089;-77
2023/03/15 16:47:50;;;;;;;6.82;0.38;;;;;;;6.97;100.00;101877.94;10533430;28;20054;-76
2023/03/15 16:52:55;;;;;;;0.00;0.00;;;;;;;6.69;100.00;101877.16;10511640;28;20055;-77
2023/03/15 16:57:59;;;;;;;0.00;0.00;;;;;;;6.60;100.00;101875.84;10541864;28;20043;-77
2023/03/15 17:03:00;;;;;;;0.00;0.00;;;;;;;6.27;100.00;101874.75;10555758;28;20085;-83
2023/03/15 17:08:05;;;;;;;0.00;0.00;;;;;;;5.92;100.00;101876.94;10543372;28;20054;-83
2023/03/15 17:13:10;;;;;;;0.25;0.13;;;;;;;5.79;100.00;101880.44;10539152;27;20040;-83
2023/03/15 17:18:16;;;;;;;0.00;0.00;;;;;;;5.88;100.00;101895.47;10533771;28;20048;-83
2023/03/15 17:23:19;;;;;;;0.10;0.10;;;;;;;5.92;100.00;101896.53;10520016;28;20043;-83
2023/03/15 17:28:22;;;;;;;1.50;1.20;;;;;;;5.88;100.00;101898.00;10517114;28;20048;-83
2023/03/15 17:33:24;;;;;;;0.80;0.43;;;;;;;5.72;100.00;101894.50;10516457;28;20100;-83
2023/03/15 17:38:31;;;;;;;1.95;0.80;;;;;;;5.55;100.00;101896.03;10531897;28;20383;-83
2023/03/15 17:43:36;;;;;;;0.47;0.45;;;;;;;5.31;100.00;101897.94;10550102;28;20036;-84
2023/03/15 17:48:53;;;;;;;0.43;0.40;;;;;;;5.19;100.00;101904.81;10503787;28;20056;-83
2023/03/15 17:53:58;;;;;;;0.85;0.77;;;;;;;5.08;100.00;101899.91;10511158;28;20096;-82
2023/03/15 17:59:00;;;;;;;0.47;0.47;;;;;;;5.11;100.00;101900.88;10510162;28;20510;-82
2023/03/15 18:04:02;;;;;;;1.42;0.80;;;;;;;4.96;100.00;101914.44;10535929;28;20434;-82
2023/03/15 18:09:04;;;;;;;0.73;0.55;;;;;;;4.88;100.00;101919.03;10536667;28;20487;-82
2023/03/15 18:14:11;;;;;;;3.63;1.88;;;;;;;4.87;100.00;101921.50;10526321;28;20048;-82
2023/03/15 18:19:13;;;;;;;2.08;1.23;;;;;;;4.81;100.00;101922.00;10544551;28;20071;-82
2023/03/15 18:24:15;;;;;;;2.28;1.50;;;;;;;4.73;100.00;101934.22;10518405;28;20054;-82
2023/03/15 18:29:16;;;;;;;1.27;1.15;;;;;;;4.59;100.00;101942.63;10515279;28;20142;-82
2023/03/15 18:34:20;;;;;;;1.80;1.40;;;;;;;4.63;100.00;101941.16;10524956;28;20040;-82
2023/03/15 18:39:24;;;;;;;0.65;0.65;;;;;;;4.51;100.00;101948.88;10514844;28;20032;-82
2023/03/15 18:44:25;;;;;;;0.32;0.20;;;;;;;4.50;100.00;101954.81;10509566;28;20534;-82
2023/03/15 18:49:27;;;;;;;0.00;0.00;;;;;;;4.37;100.00;101953.09;10543581;28;20148;-83
2023/03/15 18:54:30;;;;;;;0.10;0.10;;;;;;;4.27;100.00;101955.00;10513253;28;20050;-84
2023/03/15 18:59:31;;;;;;;0.03;0.03;;;;;;;4.27;100.00;101957.53;10517251;28;20511;-84
2023/03/15 19:04:33;;;;;;;0.20;0.03;;;;;;;4.28;100.00;101958.44;10514315;28;20047;-84
2023/03/15 19:09:35;;;;;;;0.00;0.00;;;;;;;4.21;100.00;101951.13;10510768;28;20044;-84
2023/03/15 19:14:37;;;;;;;0.38;0.38;;;;;;;4.10;100.00;101948.75;10512663;28;20044;-83
2023/03/15 19:19:39;;;;;;;0.10;0.10;;;;;;;4.07;100.00;101943.41;10539542;28;20040;-84
2023/03/15 19:24:40;;;;;;;0.00;0.00;;;;;;;4.15;100.00;101945.59;10523960;28;20509;-84
2023/03/15 19:29:42;;;;;;;0.10;0.10;;;;;;;4.12;100.00;101931.88;10507281;28;20049;-84
2023/03/15 19:34:44;;;;;;;0.03;0.03;;;;;;;4.20;100.00;101928.97;10541341;28;20058;-83
2023/03/15 19:39:46;;;;;;;0.00;0.00;;;;;;;4.16;100.00;101926.97;10529184;28;20127;-84
2023/03/15 19:44:47;;;;;;;0.65;0.65;;;;;;;4.12;100.00;101926.78;10546270;28;20052;-83
2023/03/15 19:49:49;;;;;;;0.00;0.00;;;;;;;3.98;100.00;101932.59;10525624;28;20428;-83
2023/03/15 19:54:51;;;;;;;0.00;0.00;;;;;;;3.99;100.00;101936.03;10520548;28;20056;-83
2023/03/15 19:59:53;;;;;;;0.08;0.08;;;;;;;3.92;100.00;101942.34;10524153;28;20055;-83
2023/03/15 20:04:55;;;;;;;0.32;0.20;;;;;;;3.93;100.00;101934.84;10538597;28;20041;-82
2023/03/15 20:09:56;;;;;;;0.00;0.00;;;;;;;4.07;100.00;101932.34;10531713;28;20483;-83
2023/03/15 20:14:58;;;;;;;0.15;0.00;;;;;;;4.12;100.00;101931.88;10519996;28;20055;-83
2023/03/15 20:19:59;;;;;;;0.00;0.00;;;;;;;3.99;100.00;101929.25;10517119;28;20047;-83
2023/03/15 20:25:01;;;;;;;0.30;0.30;;;;;;;4.01;100.00;101925.16;10517526;28;20044;-83
2023/03/15 20:30:04;;;;;;;0.30;0.30;;;;;;;3.94;100.00;101928.97;10540895;28;20043;-82
2023/03/15 20:35:08;;;;;;;0.13;0.10;;;;;;;3.90;100.00;101919.31;10555258;28;20365;-82
2023/03/15 20:40:12;;;;;;;0.70;0.28;;;;;;;3.90;100.00;101926.97;10545948;28;20047;-83
2023/03/15 20:45:13;;;;;;;0.00;0.00;;;;;;;3.89;100.00;101937.06;10528592;28;20314;-82
2023/03/15 20:50:15;;;;;;;0.88;0.52;;;;;;;3.76;100.00;101933.63;10516544;28;20068;-82
2023/03/15 20:55:17;;;;;;;0.10;0.10;;;;;;;3.67;100.00;101938.09;10508662;28;20101;-83
2023/03/15 21:00:19;;;;;;;0.20;0.20;;;;;;;3.75;100.00;101934.44;10510862;28;20040;-83
2023/03/15 21:05:23;;;;;;;0.22;0.20;;;;;;;3.67;100.00;101935.56;10529970;28;20101;-83
2023/03/15 21:10:24;;;;;;;1.00;0.35;;;;;;;3.59;100.00;101922.25;10511710;28;20098;-83
2023/03/15 21:15:26;;;;;;;0.45;0.22;;;;;;;3.54;100.00;101926.16;10522055;28;20056;-83
2023/03/15 21:20:28;;;;;;;0.05;0.05;;;;;;;3.52;100.00;101921.72;10519263;28;20043;-83
2023/03/15 21:25:31;;;;;;;0.00;0.00;;;;;;;3.42;100.00;101918.50;10535384;28;20056;-83
2023/03/15 21:30:37;;;;;;;0.20;0.20;;;;;;;3.36;100.00;101909.53;10518541;28;20060;-84
2023/03/15 21:35:39;;;;;;;0.00;0.00;;;;;;;3.37;100.00;101899.47;10510586;28;20054;-84
2023/03/15 21:40:46;;;;;;;0.00;0.00;;;;;;;3.26;100.00;101896.16;10530925;28;20064;-84
2023/03/15 21:45:47;;;;;;;0.13;0.13;;;;;;;3.28;100.00;101896.28;10518208;28;20051;-84
2023/03/15 21:50:52;;;;;;;0.80;0.63;;;;;;;3.17;100.00;101888.72;10506234;28;20044;-83
2023/03/15 21:55:55;;;;;;;0.30;0.15;;;;;;;3.17;100.00;101881.09;10518930;28;20063;-83
2023/03/15 22:00:59;;;;;;;0.57;0.57;;;;;;;3.11;100.00;101869.59;10561839;28;20036;-83
2023/03/15 22:06:01;;;;;;;0.00;0.00;;;;;;;3.08;100.00;101865.19;10522165;28;20510;-83
2023/03/15 22:11:03;;;;;;;0.10;0.10;;;;;;;3.07;100.00;101863.41;10515561;28;20042;-83
2023/03/15 22:16:16;;;;;;;0.35;0.35;;;;;;;2.99;100.00;101867.06;10528207;28;20044;-83
2023/03/15 22:21:18;;;;;;;0.28;0.28;;;;;;;3.06;100.00;101860.72;10525440;28;20141;-83
2023/03/15 22:26:21;;;;;;;0.20;0.20;;;;;;;2.95;100.00;101857.41;10510819;28;20044;-81
2023/03/15 22:31:23;;;;;;;0.03;0.03;;;;;;;2.89;100.00;101851.88;10541302;28;20040;-82
2023/03/15 22:36:25;;;;;;;0.55;0.20;;;;;;;2.87;100.00;101835.63;10501467;28;20054;-83
2023/03/15 22:41:26;;;;;;;0.40;0.30;;;;;;;2.88;100.00;101832.28;10518365;28;20048;-82
2023/03/15 22:46:31;;;;;;;0.00;0.00;;;;;;;2.82;100.00;101836.16;10520963;28;20126;-82
2023/03/15 22:51:39;;;;;;;0.30;0.25;;;;;;;2.87;100.00;101833.09;10556841;28;20059;-82
2023/03/15 22:56:43;;;;;;;0.10;0.05;;;;;;;2.77;100.00;101817.16;10513690;28;20058;-83
2023/03/15 23:01:44;;;;;;;0.40;0.30;;;;;;;2.77;100.00;101806.97;10523492;28;20036;-82
2023/03/15 23:06:46;;;;;;;0.00;0.00;;;;;;;2.76;100.00;101795.00;10505068;28;20068;-80
2023/03/15 23:11:51;;;;;;;0.70;0.38;;;;;;;2.74;100.00;101794.00;10532514;28;20442;-80
2023/03/15 23:16:53;;;;;;;0.52;0.15;;;;;;;2.68;100.00;101801.22;10516461;28;20056;-80
2023/03/15 23:21:54;;;;;;;0.30;0.30;;;;;;;2.77;100.00;101794.25;10523783;28;20509;-81
2023/03/15 23:26:56;;;;;;;0.00;0.00;;;;;;;2.80;100.00;101781.72;10549848;28;20039;-80
2023/03/15 23:31:58;;;;;;;0.45;0.45;;;;;;;2.78;100.00;101785.84;10496840;28;20066;-80